sensor_id;sensor_type;location;lat;lon;timestamp;P1;durP1;ratioP1;P2;durP2;ratioP2
66139;SDS011;52945;51.908;8.364;2023-04-01T00:02:13;1.70;;;0.90;;
66139;SDS011;52945;51.908;8.364;2023-04-01T00:05:14;0.80;;;0.57;;
66139;SDS011;52945;51.908;8.364;2023-04-01T00:08:16;3.65;;;0.75;;
66139;SDS011;52945;51.908;8.364;2023-04-01T00:11:17;0.52;;;0.52;;
66139;SDS011;52945;51.908;8.364;2023-04-01T00:17:19;1.30;;;0.70;;
66139;SDS011;52945;51.908;8.364;2023-04-01T00:20:20;0.43;;;0.38;;
66139;SDS011;52945;51.908;8.364;2023-04-01T00:23:21;0.50;;;0.50;;
66139;SDS011;52945;51.908;8.364;2023-04-01T00:26:22;0.88;;;0.70;;
66139;SDS011;52945;51.908;8.364;2023-04-01T00:29:23;4.05;;;0.75;;
66139;SDS011;52945;51.908;8.364;2023-04-01T00:32:24;2.63;;;0.60;;
66139;SDS011;52945;51.908;8.364;2023-04-01T00:35:26;1.15;;;0.60;;
66139;SDS011;52945;51.908;8.364;2023-04-01T00:38:26;0.52;;;0.40;;
66139;SDS011;52945;51.908;8.364;2023-04-01T00:41:27;0.75;;;0.75;;
66139;SDS011;52945;51.908;8.364;2023-04-01T00:44:29;0.85;;;0.40;;
66139;SDS011;52945;51.908;8.364;2023-04-01T00:47:32;1.88;;;0.40;;
66139;SDS011;52945;51.908;8.364;2023-04-01T00:50:33;0.30;;;0.30;;
66139;SDS011;52945;51.908;8.364;2023-04-01T00:53:36;1.85;;;0.82;;
66139;SDS011;52945;51.908;8.364;2023-04-01T00:56:41;1.35;;;0.60;;
66139;SDS011;52945;51.908;8.364;2023-04-01T01:02:49;1.20;;;0.60;;
66139;SDS011;52945;51.908;8.364;2023-04-01T01:12:43;1.38;;;0.65;;
66139;SDS011;52945;51.908;8.364;2023-04-01T01:16:08;1.90;;;0.82;;
66139;SDS011;52945;51.908;8.364;2023-04-01T01:20:10;0.63;;;0.63;;
66139;SDS011;52945;51.908;8.364;2023-04-01T01:38:49;0.40;;;0.40;;
66139;SDS011;52945;51.908;8.364;2023-04-01T01:41:51;0.50;;;0.50;;
66139;SDS011;52945;51.908;8.364;2023-04-01T01:44:54;1.15;;;1.05;;
66139;SDS011;52945;51.908;8.364;2023-04-01T01:47:57;1.95;;;0.63;;
66139;SDS011;52945;51.908;8.364;2023-04-01T01:51:00;0.30;;;0.30;;
66139;SDS011;52945;51.908;8.364;2023-04-01T01:54:01;1.08;;;0.40;;
66139;SDS011;52945;51.908;8.364;2023-04-01T01:57:06;0.43;;;0.43;;
66139;SDS011;52945;51.908;8.364;2023-04-01T02:00:09;1.30;;;0.50;;
66139;SDS011;52945;51.908;8.364;2023-04-01T02:03:13;0.40;;;0.40;;
66139;SDS011;52945;51.908;8.364;2023-04-01T02:06:16;0.47;;;0.40;;
66139;SDS011;52945;51.908;8.364;2023-04-01T02:09:20;2.25;;;0.45;;
66139;SDS011;52945;51.908;8.364;2023-04-01T02:12:21;0.43;;;0.43;;
66139;SDS011;52945;51.908;8.364;2023-04-01T02:15:23;0.68;;;0.68;;
66139;SDS011;52945;51.908;8.364;2023-04-01T02:18:26;0.30;;;0.30;;
66139;SDS011;52945;51.908;8.364;2023-04-01T02:21:30;1.25;;;0.38;;
66139;SDS011;52945;51.908;8.364;2023-04-01T02:24:32;1.88;;;0.60;;
66139;SDS011;52945;51.908;8.364;2023-04-01T02:27:35;0.50;;;0.47;;
66139;SDS011;52945;51.908;8.364;2023-04-01T02:30:37;0.90;;;0.50;;
66139;SDS011;52945;51.908;8.364;2023-04-01T02:33:41;0.40;;;0.40;;
66139;SDS011;52945;51.908;8.364;2023-04-01T02:36:42;2.50;;;0.63;;
66139;SDS011;52945;51.908;8.364;2023-04-01T02:39:43;0.40;;;0.30;;
66139;SDS011;52945;51.908;8.364;2023-04-01T02:42:43;0.50;;;0.50;;
66139;SDS011;52945;51.908;8.364;2023-04-01T02:45:44;0.30;;;0.30;;
66139;SDS011;52945;51.908;8.364;2023-04-01T02:48:45;1.08;;;0.60;;
66139;SDS011;52945;51.908;8.364;2023-04-01T02:51:45;2.20;;;0.50;;
66139;SDS011;52945;51.908;8.364;2023-04-01T02:54:46;0.35;;;0.35;;
66139;SDS011;52945;51.908;8.364;2023-04-01T02:57:47;0.30;;;0.30;;
66139;SDS011;52945;51.908;8.364;2023-04-01T03:00:47;0.73;;;0.63;;
66139;SDS011;52945;51.908;8.364;2023-04-01T03:03:48;0.50;;;0.50;;
66139;SDS011;52945;51.908;8.364;2023-04-01T03:06:48;1.67;;;0.47;;
66139;SDS011;52945;51.908;8.364;2023-04-01T03:09:49;0.30;;;0.30;;
66139;SDS011;52945;51.908;8.364;2023-04-01T03:12:50;0.40;;;0.40;;
66139;SDS011;52945;51.908;8.364;2023-04-01T03:15:51;0.32;;;0.32;;
66139;SDS011;52945;51.908;8.364;2023-04-01T03:18:52;1.20;;;0.82;;
66139;SDS011;52945;51.908;8.364;2023-04-01T03:21:54;0.80;;;0.50;;
66139;SDS011;52945;51.908;8.364;2023-04-01T03:24:54;0.55;;;0.32;;
66139;SDS011;52945;51.908;8.364;2023-04-01T03:27:55;0.40;;;0.40;;
66139;SDS011;52945;51.908;8.364;2023-04-01T03:30:55;0.38;;;0.38;;
66139;SDS011;52945;51.908;8.364;2023-04-01T03:33:56;0.60;;;0.60;;
66139;SDS011;52945;51.908;8.364;2023-04-01T03:36:57;2.08;;;0.40;;
66139;SDS011;52945;51.908;8.364;2023-04-01T03:39:58;0.60;;;0.60;;
66139;SDS011;52945;51.908;8.364;2023-04-01T03:42:58;1.08;;;0.63;;
66139;SDS011;52945;51.908;8.364;2023-04-01T03:45:59;0.50;;;0.50;;
66139;SDS011;52945;51.908;8.364;2023-04-01T03:49:00;0.50;;;0.50;;
66139;SDS011;52945;51.908;8.364;2023-04-01T03:52:00;0.50;;;0.50;;
66139;SDS011;52945;51.908;8.364;2023-04-01T03:55:01;0.32;;;0.32;;
66139;SDS011;52945;51.908;8.364;2023-04-01T03:58:02;0.82;;;0.50;;
66139;SDS011;52945;51.908;8.364;2023-04-01T04:01:12;0.63;;;0.43;;
66139;SDS011;52945;51.908;8.364;2023-04-01T04:04:22;0.88;;;0.52;;
66139;SDS011;52945;51.908;8.364;2023-04-01T04:07:23;0.57;;;0.50;;
66139;SDS011;52945;51.908;8.364;2023-04-01T04:10:24;0.40;;;0.40;;
66139;SDS011;52945;51.908;8.364;2023-04-01T04:13:25;0.30;;;0.30;;
66139;SDS011;52945;51.908;8.364;2023-04-01T04:16:25;0.63;;;0.40;;
66139;SDS011;52945;51.908;8.364;2023-04-01T04:19:26;0.38;;;0.30;;
66139;SDS011;52945;51.908;8.364;2023-04-01T04:22:26;0.32;;;0.32;;
66139;SDS011;52945;51.908;8.364;2023-04-01T04:25:27;0.35;;;0.30;;
66139;SDS011;52945;51.908;8.364;2023-04-01T04:28:28;0.28;;;0.28;;
66139;SDS011;52945;51.908;8.364;2023-04-01T04:31:29;0.70;;;0.70;;
66139;SDS011;52945;51.908;8.364;2023-04-01T04:34:29;1.65;;;0.43;;
66139;SDS011;52945;51.908;8.364;2023-04-01T04:37:30;0.55;;;0.55;;
66139;SDS011;52945;51.908;8.364;2023-04-01T04:40:30;0.40;;;0.40;;
66139;SDS011;52945;51.908;8.364;2023-04-01T04:43:31;0.40;;;0.40;;
66139;SDS011;52945;51.908;8.364;2023-04-01T04:46:32;0.50;;;0.50;;
66139;SDS011;52945;51.908;8.364;2023-04-01T04:49:32;0.32;;;0.32;;
66139;SDS011;52945;51.908;8.364;2023-04-01T04:52:33;0.40;;;0.40;;
66139;SDS011;52945;51.908;8.364;2023-04-01T04:55:33;0.30;;;0.30;;
66139;SDS011;52945;51.908;8.364;2023-04-01T04:58:34;0.28;;;0.28;;
66139;SDS011;52945;51.908;8.364;2023-04-01T05:05:08;0.80;;;0.80;;
66139;SDS011;52945;51.908;8.364;2023-04-01T05:08:08;0.40;;;0.40;;
66139;SDS011;52945;51.908;8.364;2023-04-01T05:11:10;0.40;;;0.40;;
66139;SDS011;52945;51.908;8.364;2023-04-01T05:14:16;0.50;;;0.50;;
66139;SDS011;52945;51.908;8.364;2023-04-01T05:17:16;0.57;;;0.50;;
66139;SDS011;52945;51.908;8.364;2023-04-01T05:20:17;0.68;;;0.50;;
66139;SDS011;52945;51.908;8.364;2023-04-01T05:23:18;0.47;;;0.47;;
66139;SDS011;52945;51.908;8.364;2023-04-01T05:26:20;0.30;;;0.30;;
66139;SDS011;52945;51.908;8.364;2023-04-01T05:29:21;0.30;;;0.30;;
66139;SDS011;52945;51.908;8.364;2023-04-01T05:32:22;0.60;;;0.50;;
66139;SDS011;52945;51.908;8.364;2023-04-01T05:35:23;0.75;;;0.57;;
66139;SDS011;52945;51.908;8.364;2023-04-01T05:38:23;0.95;;;0.63;;
66139;SDS011;52945;51.908;8.364;2023-04-01T05:41:24;0.45;;;0.45;;
66139;SDS011;52945;51.908;8.364;2023-04-01T05:44:25;0.50;;;0.50;;
66139;SDS011;52945;51.908;8.364;2023-04-01T05:47:25;0.90;;;0.63;;
66139;SDS011;52945;51.908;8.364;2023-04-01T05:50:26;0.90;;;0.43;;
66139;SDS011;52945;51.908;8.364;2023-04-01T05:53:26;1.50;;;0.50;;
66139;SDS011;52945;51.908;8.364;2023-04-01T05:56:27;0.50;;;0.50;;
66139;SDS011;52945;51.908;8.364;2023-04-01T05:59:27;1.17;;;0.82;;
66139;SDS011;52945;51.908;8.364;2023-04-01T06:02:31;0.55;;;0.50;;
66139;SDS011;52945;51.908;8.364;2023-04-01T06:05:36;1.00;;;0.40;;
66139;SDS011;52945;51.908;8.364;2023-04-01T06:08:42;0.50;;;0.50;;
66139;SDS011;52945;51.908;8.364;2023-04-01T06:11:51;1.08;;;0.70;;
66139;SDS011;52945;51.908;8.364;2023-04-01T06:25:09;0.52;;;0.52;;
66139;SDS011;52945;51.908;8.364;2023-04-01T06:28:21;1.02;;;0.40;;
66139;SDS011;52945;51.908;8.364;2023-04-01T06:31:38;2.53;;;0.70;;
66139;SDS011;52945;51.908;8.364;2023-04-01T06:38:21;0.65;;;0.65;;
66139;SDS011;52945;51.908;8.364;2023-04-01T06:41:32;1.20;;;0.75;;
66139;SDS011;52945;51.908;8.364;2023-04-01T06:49:00;1.85;;;0.60;;
66139;SDS011;52945;51.908;8.364;2023-04-01T06:52:01;0.70;;;0.68;;
66139;SDS011;52945;51.908;8.364;2023-04-01T06:55:24;0.73;;;0.73;;
66139;SDS011;52945;51.908;8.364;2023-04-01T06:58:46;0.73;;;0.52;;
66139;SDS011;52945;51.908;8.364;2023-04-01T07:01:53;0.90;;;0.65;;
66139;SDS011;52945;51.908;8.364;2023-04-01T07:04:58;1.30;;;0.82;;
66139;SDS011;52945;51.908;8.364;2023-04-01T07:08:04;0.60;;;0.60;;
66139;SDS011;52945;51.908;8.364;2023-04-01T07:11:10;0.63;;;0.57;;
66139;SDS011;52945;51.908;8.364;2023-04-01T07:17:39;0.70;;;0.63;;
66139;SDS011;52945;51.908;8.364;2023-04-01T07:20:43;1.00;;;0.68;;
66139;SDS011;52945;51.908;8.364;2023-04-01T07:26:46;0.55;;;0.55;;
66139;SDS011;52945;51.908;8.364;2023-04-01T07:29:47;0.77;;;0.60;;
66139;SDS011;52945;51.908;8.364;2023-04-01T07:36:00;1.65;;;0.77;;
66139;SDS011;52945;51.908;8.364;2023-04-01T07:39:09;1.83;;;0.70;;
66139;SDS011;52945;51.908;8.364;2023-04-01T08:03:29;1.23;;;0.70;;
66139;SDS011;52945;51.908;8.364;2023-04-01T08:06:57;0.70;;;0.70;;
66139;SDS011;52945;51.908;8.364;2023-04-01T08:23:38;0.80;;;0.70;;
66139;SDS011;52945;51.908;8.364;2023-04-01T08:26:46;0.70;;;0.70;;
66139;SDS011;52945;51.908;8.364;2023-04-01T08:29:57;0.70;;;0.70;;
66139;SDS011;52945;51.908;8.364;2023-04-01T08:36:12;0.82;;;0.70;;
66139;SDS011;52945;51.908;8.364;2023-04-01T08:39:22;1.20;;;0.70;;
66139;SDS011;52945;51.908;8.364;2023-04-01T08:42:46;0.52;;;0.52;;
66139;SDS011;52945;51.908;8.364;2023-04-01T08:49:26;1.42;;;0.68;;
66139;SDS011;52945;51.908;8.364;2023-04-01T09:03:08;0.70;;;0.70;;
66139;SDS011;52945;51.908;8.364;2023-04-01T09:13:45;0.85;;;0.65;;
66139;SDS011;52945;51.908;8.364;2023-04-01T09:21:01;1.48;;;1.00;;
66139;SDS011;52945;51.908;8.364;2023-04-01T09:31:12;0.63;;;0.63;;
66139;SDS011;52945;51.908;8.364;2023-04-01T09:38:11;0.88;;;0.80;;
66139;SDS011;52945;51.908;8.364;2023-04-01T09:45:08;1.08;;;1.00;;
66139;SDS011;52945;51.908;8.364;2023-04-01T10:36:35;0.80;;;0.75;;
66139;SDS011;52945;51.908;8.364;2023-04-01T10:43:33;0.82;;;0.80;;
66139;SDS011;52945;51.908;8.364;2023-04-01T11:24:59;2.88;;;1.00;;
66139;SDS011;52945;51.908;8.364;2023-04-01T11:28:14;1.45;;;1.13;;
66139;SDS011;52945;51.908;8.364;2023-04-01T11:31:50;1.55;;;1.20;;
66139;SDS011;52945;51.908;8.364;2023-04-01T11:35:19;2.05;;;1.20;;
66139;SDS011;52945;51.908;8.364;2023-04-01T11:42:03;1.30;;;0.90;;
66139;SDS011;52945;51.908;8.364;2023-04-01T11:45:43;0.85;;;0.85;;
66139;SDS011;52945;51.908;8.364;2023-04-01T11:49:25;0.85;;;0.85;;
66139;SDS011;52945;51.908;8.364;2023-04-01T11:52:37;0.80;;;0.80;;
66139;SDS011;52945;51.908;8.364;2023-04-01T12:02:53;1.00;;;0.90;;
66139;SDS011;52945;51.908;8.364;2023-04-01T12:10:16;1.60;;;1.10;;
66139;SDS011;52945;51.908;8.364;2023-04-01T12:13:31;1.23;;;1.00;;
66139;SDS011;52945;51.908;8.364;2023-04-01T12:20:01;1.10;;;1.00;;
66139;SDS011;52945;51.908;8.364;2023-04-01T12:27:12;1.27;;;1.08;;
66139;SDS011;52945;51.908;8.364;2023-04-01T12:30:45;1.80;;;1.10;;
66139;SDS011;52945;51.908;8.364;2023-04-01T12:33:58;0.90;;;0.77;;
66139;SDS011;52945;51.908;8.364;2023-04-01T12:37:32;1.25;;;1.10;;
66139;SDS011;52945;51.908;8.364;2023-04-01T12:47:50;4.07;;;1.50;;
66139;SDS011;52945;51.908;8.364;2023-04-01T12:54:57;2.75;;;1.50;;
66139;SDS011;52945;51.908;8.364;2023-04-01T13:01:44;2.67;;;1.52;;
66139;SDS011;52945;51.908;8.364;2023-04-01T13:08:36;3.35;;;1.70;;
66139;SDS011;52945;51.908;8.364;2023-04-01T13:26:23;2.63;;;1.73;;
66139;SDS011;52945;51.908;8.364;2023-04-01T13:32:45;2.58;;;1.83;;
66139;SDS011;52945;51.908;8.364;2023-04-01T13:39:31;2.78;;;1.60;;
66139;SDS011;52945;51.908;8.364;2023-04-01T13:42:57;3.95;;;2.00;;
66139;SDS011;52945;51.908;8.364;2023-04-01T14:02:24;3.45;;;1.70;;
66139;SDS011;52945;51.908;8.364;2023-04-01T14:05:39;2.30;;;1.60;;
66139;SDS011;52945;51.908;8.364;2023-04-01T14:08:59;5.30;;;2.10;;
66139;SDS011;52945;51.908;8.364;2023-04-01T14:12:31;3.75;;;1.80;;
66139;SDS011;52945;51.908;8.364;2023-04-01T14:15:42;2.08;;;1.55;;
66139;SDS011;52945;51.908;8.364;2023-04-01T14:25:41;2.97;;;1.90;;
66139;SDS011;52945;51.908;8.364;2023-04-01T14:46:06;2.53;;;2.00;;
66139;SDS011;52945;51.908;8.364;2023-04-01T14:49:37;2.53;;;1.83;;
66139;SDS011;52945;51.908;8.364;2023-04-01T14:52:42;1.42;;;1.20;;
66139;SDS011;52945;51.908;8.364;2023-04-01T14:56:04;1.52;;;1.30;;
66139;SDS011;52945;51.908;8.364;2023-04-01T14:59:09;2.08;;;1.45;;
66139;SDS011;52945;51.908;8.364;2023-04-01T15:08:52;2.13;;;1.40;;
66139;SDS011;52945;51.908;8.364;2023-04-01T15:12:23;3.53;;;1.60;;
66139;SDS011;52945;51.908;8.364;2023-04-01T15:36:00;4.15;;;1.92;;
66139;SDS011;52945;51.908;8.364;2023-04-01T15:39:14;2.70;;;1.85;;
66139;SDS011;52945;51.908;8.364;2023-04-01T15:42:27;2.70;;;1.95;;
66139;SDS011;52945;51.908;8.364;2023-04-01T15:45:47;2.17;;;1.70;;
66139;SDS011;52945;51.908;8.364;2023-04-01T15:52:37;2.70;;;1.85;;
66139;SDS011;52945;51.908;8.364;2023-04-01T16:02:54;3.25;;;1.88;;
66139;SDS011;52945;51.908;8.364;2023-04-01T16:13:42;2.45;;;2.05;;
66139;SDS011;52945;51.908;8.364;2023-04-01T16:16:54;3.20;;;2.10;;
66139;SDS011;52945;51.908;8.364;2023-04-01T16:20:14;2.35;;;1.80;;
66139;SDS011;52945;51.908;8.364;2023-04-01T16:23:26;4.13;;;2.10;;
66139;SDS011;52945;51.908;8.364;2023-04-01T16:26:56;2.42;;;1.90;;
66139;SDS011;52945;51.908;8.364;2023-04-01T16:30:22;2.55;;;2.05;;
66139;SDS011;52945;51.908;8.364;2023-04-01T16:36:43;3.28;;;2.22;;
66139;SDS011;52945;51.908;8.364;2023-04-01T16:40:02;3.60;;;2.05;;
66139;SDS011;52945;51.908;8.364;2023-04-01T16:46:20;4.47;;;2.28;;
66139;SDS011;52945;51.908;8.364;2023-04-01T16:59:15;3.38;;;2.33;;
66139;SDS011;52945;51.908;8.364;2023-04-01T17:02:23;3.15;;;2.05;;
66139;SDS011;52945;51.908;8.364;2023-04-01T17:05:43;3.75;;;2.55;;
66139;SDS011;52945;51.908;8.364;2023-04-01T17:19:19;4.18;;;2.60;;
66139;SDS011;52945;51.908;8.364;2023-04-01T17:26:03;6.40;;;2.97;;
66139;SDS011;52945;51.908;8.364;2023-04-01T17:35:31;5.13;;;2.67;;
66139;SDS011;52945;51.908;8.364;2023-04-01T17:38:48;10.55;;;3.65;;
66139;SDS011;52945;51.908;8.364;2023-04-01T17:51:40;7.40;;;2.53;;
66139;SDS011;52945;51.908;8.364;2023-04-01T18:12:56;3.05;;;1.83;;
66139;SDS011;52945;51.908;8.364;2023-04-01T18:25:47;3.30;;;1.60;;
66139;SDS011;52945;51.908;8.364;2023-04-01T18:28:54;3.42;;;1.98;;
66139;SDS011;52945;51.908;8.364;2023-04-01T18:35:58;4.75;;;1.70;;
66139;SDS011;52945;51.908;8.364;2023-04-01T18:39:22;6.72;;;1.70;;
66139;SDS011;52945;51.908;8.364;2023-04-01T18:42:41;5.40;;;1.60;;
66139;SDS011;52945;51.908;8.364;2023-04-01T18:46:20;3.15;;;1.20;;
66139;SDS011;52945;51.908;8.364;2023-04-01T18:49:40;4.35;;;1.10;;
66139;SDS011;52945;51.908;8.364;2023-04-01T18:52:45;7.35;;;2.50;;
66139;SDS011;52945;51.908;8.364;2023-04-01T18:55:57;15.32;;;3.83;;
66139;SDS011;52945;51.908;8.364;2023-04-01T18:59:11;4.15;;;1.58;;
66139;SDS011;52945;51.908;8.364;2023-04-01T19:02:27;2.42;;;1.23;;
66139;SDS011;52945;51.908;8.364;2023-04-01T19:05:33;1.58;;;0.93;;
66139;SDS011;52945;51.908;8.364;2023-04-01T19:08:39;1.48;;;1.13;;
66139;SDS011;52945;51.908;8.364;2023-04-01T19:11:44;1.75;;;1.13;;
66139;SDS011;52945;51.908;8.364;2023-04-01T19:14:56;1.20;;;1.10;;
66139;SDS011;52945;51.908;8.364;2023-04-01T19:22:01;1.35;;;0.90;;
66139;SDS011;52945;51.908;8.364;2023-04-01T19:32:08;0.73;;;0.73;;
66139;SDS011;52945;51.908;8.364;2023-04-01T19:39:05;0.93;;;0.90;;
66139;SDS011;52945;51.908;8.364;2023-04-01T19:42:32;1.88;;;1.17;;
66139;SDS011;52945;51.908;8.364;2023-04-01T19:46:06;1.05;;;0.93;;
66139;SDS011;52945;51.908;8.364;2023-04-01T20:15:36;0.75;;;0.70;;
66139;SDS011;52945;51.908;8.364;2023-04-01T20:22:00;1.95;;;0.90;;
66139;SDS011;52945;51.908;8.364;2023-04-01T20:25:15;1.77;;;1.30;;
66139;SDS011;52945;51.908;8.364;2023-04-01T20:28:28;1.90;;;1.50;;
66139;SDS011;52945;51.908;8.364;2023-04-01T20:31:43;1.35;;;1.23;;
66139;SDS011;52945;51.908;8.364;2023-04-01T20:38:46;1.67;;;1.27;;
66139;SDS011;52945;51.908;8.364;2023-04-01T20:48:58;2.67;;;1.70;;
66139;SDS011;52945;51.908;8.364;2023-04-01T20:55:27;3.33;;;1.70;;
66139;SDS011;52945;51.908;8.364;2023-04-01T21:05:51;1.10;;;0.98;;
66139;SDS011;52945;51.908;8.364;2023-04-01T21:15:29;0.98;;;0.98;;
66139;SDS011;52945;51.908;8.364;2023-04-01T21:22:19;1.45;;;1.10;;
66139;SDS011;52945;51.908;8.364;2023-04-01T21:25:56;1.42;;;1.00;;
66139;SDS011;52945;51.908;8.364;2023-04-01T21:29:19;1.23;;;1.02;;
66139;SDS011;52945;51.908;8.364;2023-04-01T22:07:28;1.38;;;1.20;;
66139;SDS011;52945;51.908;8.364;2023-04-01T22:10:44;1.98;;;1.48;;
66139;SDS011;52945;51.908;8.364;2023-04-01T22:16:53;2.55;;;1.10;;
66139;SDS011;52945;51.908;8.364;2023-04-01T22:20:16;1.92;;;1.30;;
66139;SDS011;52945;51.908;8.364;2023-04-01T22:23:31;1.65;;;1.55;;
66139;SDS011;52945;51.908;8.364;2023-04-01T22:26:49;2.60;;;1.88;;
66139;SDS011;52945;51.908;8.364;2023-04-01T22:42:56;2.03;;;1.60;;
66139;SDS011;52945;51.908;8.364;2023-04-01T22:49:36;1.60;;;1.30;;
66139;SDS011;52945;51.908;8.364;2023-04-01T22:52:43;1.73;;;1.60;;
66139;SDS011;52945;51.908;8.364;2023-04-01T22:55:46;2.15;;;1.55;;
66139;SDS011;52945;51.908;8.364;2023-04-01T23:02:21;3.03;;;1.65;;
66139;SDS011;52945;51.908;8.364;2023-04-01T23:05:27;4.90;;;1.55;;
66139;SDS011;52945;51.908;8.364;2023-04-01T23:11:50;1.95;;;1.58;;
66139;SDS011;52945;51.908;8.364;2023-04-01T23:14:58;2.00;;;1.60;;
66139;SDS011;52945;51.908;8.364;2023-04-01T23:18:05;2.50;;;1.90;;
66139;SDS011;52945;51.908;8.364;2023-04-01T23:21:18;2.38;;;1.60;;
66139;SDS011;52945;51.908;8.364;2023-04-01T23:24:44;1.60;;;1.20;;
66139;SDS011;52945;51.908;8.364;2023-04-01T23:27:55;2.30;;;1.17;;
66139;SDS011;52945;51.908;8.364;2023-04-01T23:31:25;3.10;;;1.60;;
66139;SDS011;52945;51.908;8.364;2023-04-01T23:34:32;2.05;;;1.40;;
66139;SDS011;52945;51.908;8.364;2023-04-01T23:37:34;1.77;;;1.55;;
66139;SDS011;52945;51.908;8.364;2023-04-01T23:40:35;1.48;;;1.38;;
66139;SDS011;52945;51.908;8.364;2023-04-01T23:43:37;1.50;;;1.40;;
66139;SDS011;52945;51.908;8.364;2023-04-01T23:46:40;1.40;;;1.30;;
66139;SDS011;52945;51.908;8.364;2023-04-01T23:49:51;2.55;;;1.13;;
66139;SDS011;52945;51.908;8.364;2023-04-01T23:53:02;2.03;;;1.30;;
66139;SDS011;52945;51.908;8.364;2023-04-01T23:59:14;1.45;;;1.23;;
